Time;durP1;ratioP1;P1;durP2;ratioP2;P2;SDS_P1;SDS_P2;PMS_P1;PMS_P2;Temp;Humidity;BMP_temperature;BMP_pressure;BME280_temperature;BME280_humidity;BME280_pressure;Samples;Min_cycle;Max_cycle;Signal;HPM_P1;HPM_P2
2022/04/04 00:00:43;;;;;;;;;;;;;;;3.40;100.00;101975.25;5115952;28;20367;-67
2022/04/04 00:03:09;;;;;;;;;;;;;;;3.53;100.00;101966.53;5127043;28;19916;-68
2022/04/04 00:05:34;;;;;;;;;;;;;;;3.58;100.00;101958.69;5116072;28;20514;-68
2022/04/04 00:07:59;;;;;;;;;;;;;;;3.63;100.00;101952.56;5113219;28;20335;-67
2022/04/04 00:10:25;;;;;;;;;;;;;;;3.59;100.00;101950.81;5115634;28;19920;-69
2022/04/04 00:12:50;;;;;;;;;;;;;;;3.63;100.00;101939.44;5135317;28;20278;-68
2022/04/04 00:15:15;;;;;;;;;;;;;;;3.57;100.00;101936.81;5134956;27;19958;-68
2022/04/04 00:17:40;;;;;;;;;;;;;;;3.65;100.00;101923.69;5119934;27;19937;-67
2022/04/04 00:20:07;;;;;;;;;;;;;;;3.65;100.00;101928.94;5139091;27;19919;-68
2022/04/04 00:22:32;;;;;;;;;;;;;;;3.61;100.00;101920.16;5139563;27;19923;-67
2022/04/04 00:24:58;;;;;;;;;;;;;;;3.65;100.00;101918.44;5134909;27;19916;-67
2022/04/04 00:27:23;;;;;;;;;;;;;;;3.63;100.00;101909.66;5129955;27;19942;-67
2022/04/04 00:29:48;;;;;;;;;;;;;;;3.65;100.00;101906.19;5133453;27;20393;-67
2022/04/04 00:32:13;;;;;;;;;;;;;;;3.56;100.00;101905.28;5139549;27;19956;-68
2022/04/04 00:34:38;;;;;;;;;;;;;;;3.69;100.00;101902.66;5102307;28;19951;-67
2022/04/04 00:37:04;;;;;;;;;;;;;;;3.74;100.00;101898.31;5119067;28;19915;-67
2022/04/04 00:39:29;;;;;;;;;;;;;;;3.95;100.00;101894.84;5118104;28;19916;-67
2022/04/04 00:41:55;;;;;;;;;;;;;;;3.99;100.00;101904.47;5126425;27;19916;-67
2022/04/04 00:44:21;;;;;;;;;;;;;;;3.97;100.00;101893.94;5120065;27;19916;-68
2022/04/04 00:46:46;;;;;;;;;;;;;;;3.96;100.00;101893.94;5138731;27;19915;-67
2022/04/04 00:49:11;;;;;;;;;;;;;;;4.21;100.00;101885.19;5139365;27;19968;-67
2022/04/04 00:51:37;;;;;;;;;;;;;;;4.36;100.00;101874.69;5139036;27;20282;-67
2022/04/04 00:54:03;;;;;;;;;;;;;;;4.40;100.00;101881.66;5138573;27;20259;-67
2022/04/04 00:56:31;;;;;;;;;;;;;;;4.38;100.00;101865.03;5138202;27;19915;-68
2022/04/04 00:58:56;;;;;;;;;;;;;;;4.47;100.00;101860.66;5138140;27;19919;-67
2022/04/04 01:01:22;;;;;;;;;;;;;;;4.46;100.00;101847.47;5138689;27;19919;-68
2022/04/04 01:03:47;;;;;;;;;;;;;;;4.50;100.00;101843.97;5138450;27;19923;-68
2022/04/04 01:06:12;;;;;;;;;;;;;;;4.60;100.00;101838.66;5138460;27;19955;-68
2022/04/04 01:08:38;;;;;;;;;;;;;;;4.57;100.00;101830.78;5138179;27;19915;-68
2022/04/04 01:11:03;;;;;;;;;;;;;;;4.59;100.00;101833.41;5137838;27;19919;-67
2022/04/04 01:13:28;;;;;;;;;;;;;;;4.53;100.00;101822.91;5137906;27;19915;-67
2022/04/04 01:15:53;;;;;;;;;;;;;;;4.61;100.00;101829.03;5119516;27;19915;-67
2022/04/04 01:18:19;;;;;;;;;;;;;;;4.68;100.00;101812.34;5138433;27;19922;-67
2022/04/04 01:20:44;;;;;;;;;;;;;;;4.73;100.00;101813.19;5138107;27;19926;-67
2022/04/04 01:23:12;;;;;;;;;;;;;;;4.74;100.00;101805.28;5137860;27;19921;-67
2022/04/04 01:25:38;;;;;;;;;;;;;;;4.76;100.00;101802.66;5138159;27;19970;-68
2022/04/04 01:28:04;;;;;;;;;;;;;;;4.79;100.00;101793.91;5118213;27;19951;-68
2022/04/04 01:30:31;;;;;;;;;;;;;;;4.89;100.00;101804.38;5137924;27;19915;-68
2022/04/04 01:32:56;;;;;;;;;;;;;;;4.93;100.00;101785.06;5130779;27;20358;-68
2022/04/04 01:35:21;;;;;;;;;;;;;;;4.94;100.00;101780.66;5117179;28;19916;-67
2022/04/04 01:37:47;;;;;;;;;;;;;;;4.96;100.00;101766.63;5117653;28;19916;-67
2022/04/04 01:40:12;;;;;;;;;;;;;;;4.96;100.00;101757.84;5117317;28;19919;-67
2022/04/04 01:42:38;;;;;;;;;;;;;;;4.99;100.00;101758.72;5098765;28;19962;-67
2022/04/04 01:45:04;;;;;;;;;;;;;;;4.88;100.00;101749.09;5098735;28;19915;-68
2022/04/04 01:47:30;;;;;;;;;;;;;;;4.93;100.00;101747.34;5116723;28;19915;-68
2022/04/04 01:49:55;;;;;;;;;;;;;;;4.94;100.00;101728.91;5116401;28;19926;-68
2022/04/04 01:52:20;;;;;;;;;;;;;;;4.83;100.00;101724.56;5116884;28;19916;-68
2022/04/04 01:54:45;;;;;;;;;;;;;;;4.89;100.00;101730.66;5117205;28;20007;-68
2022/04/04 01:57:11;;;;;;;;;;;;;;;4.85;100.00;101723.69;5098252;28;19916;-67
2022/04/04 01:59:36;;;;;;;;;;;;;;;4.90;100.00;101718.41;5116228;28;19922;-68
2022/04/04 02:02:01;;;;;;;;;;;;;;;4.85;100.00;101705.28;5097755;28;19923;-67
2022/04/04 02:04:26;;;;;;;;;;;;;;;4.89;100.00;101704.34;5098039;28;20335;-67
2022/04/04 02:06:52;;;;;;;;;;;;;;;4.83;100.00;101699.13;5116624;28;19955;-67
2022/04/04 02:09:17;;;;;;;;;;;;;;;4.81;100.00;101692.13;5116165;28;19923;-68
2022/04/04 02:11:43;;;;;;;;;;;;;;;4.83;100.00;101693.88;5116333;28;19916;-67
2022/04/04 02:14:08;;;;;;;;;;;;;;;4.80;100.00;101686.00;5096885;28;19955;-68
2022/04/04 02:16:34;;;;;;;;;;;;;;;4.77;100.00;101693.91;5116409;28;19916;-67
2022/04/04 02:18:59;;;;;;;;;;;;;;;4.80;100.00;101686.00;5098015;28;19923;-67
2022/04/04 02:21:24;;;;;;;;;;;;;;;4.67;100.00;101682.56;5097455;28;20003;-68
2022/04/04 02:23:51;;;;;;;;;;;;;;;4.78;100.00;101666.69;5115269;28;20321;-67
2022/04/04 02:26:16;;;;;;;;;;;;;;;4.83;100.00;101667.53;5115844;28;19915;-67
2022/04/04 02:28:41;;;;;;;;;;;;;;;4.86;100.00;101656.13;5116162;28;20256;-67
2022/04/04 02:31:07;;;;;;;;;;;;;;;4.92;100.00;101654.31;5116079;28;20402;-67
2022/04/04 02:33:32;;;;;;;;;;;;;;;4.85;100.00;101644.75;5128196;27;19960;-67
2022/04/04 02:35:57;;;;;;;;;;;;;;;4.96;100.00;101627.13;5136421;27;19961;-68
2022/04/04 02:38:24;;;;;;;;;;;;;;;5.02;100.00;101632.31;5135617;27;19923;-67
2022/04/04 02:40:49;;;;;;;;;;;;;;;4.97;100.00;101633.22;5135929;27;20367;-67
2022/04/04 02:43:14;;;;;;;;;;;;;;;4.98;100.00;101627.94;5136062;27;19952;-67
2022/04/04 02:45:40;;;;;;;;;;;;;;;4.95;100.00;101617.44;5117904;27;19915;-67
2022/04/04 02:48:05;;;;;;;;;;;;;;;4.96;100.00;101608.69;5117641;27;19945;-67
2022/04/04 02:50:31;;;;;;;;;;;;;;;4.97;100.00;101607.78;5137765;27;19922;-67
2022/04/04 02:52:56;;;;;;;;;;;;;;;4.89;100.00;101603.44;5119724;27;19916;-67
2022/04/04 02:58:05;;;;;;;;;;;;;;;4.89;100.00;101580.66;5139634;27;19922;-67
2022/04/04 03:00:30;;;;;;;;;;;;;;;4.90;100.00;101576.28;5120698;27;19915;-67
2022/04/04 03:02:56;;;;;;;;;;;;;;;4.89;100.00;101585.91;5138995;27;19915;-67
2022/04/04 03:05:21;;;;;;;;;;;;;;;4.92;100.00;101564.81;5137211;27;19922;-68
2022/04/04 03:07:47;;;;;;;;;;;;;;;4.97;100.00;101560.41;5136846;27;19964;-67
2022/04/04 03:10:13;;;;;;;;;;;;;;;4.90;100.00;101550.81;5116978;27;19965;-67
2022/04/04 03:12:42;;;;;;;;;;;;;;;4.96;100.00;101547.25;5135026;27;19922;-68
2022/04/04 03:15:08;;;;;;;;;;;;;;;4.98;100.00;101548.13;5135303;27;19919;-68
2022/04/04 03:17:33;;;;;;;;;;;;;;;5.00;100.00;101549.84;5117485;27;19945;-68
2022/04/04 03:19:58;;;;;;;;;;;;;;;4.97;100.00;101539.34;5136175;27;19924;-68
2022/04/04 03:22:24;;;;;;;;;;;;;;;5.02;100.00;101537.56;5135864;27;19927;-68
2022/04/04 03:24:49;;;;;;;;;;;;;;;5.06;100.00;101527.88;5135575;27;19916;-67
2022/04/04 03:27:14;;;;;;;;;;;;;;;5.10;100.00;101519.03;5135135;27;19915;-67
2022/04/04 03:29:40;;;;;;;;;;;;;;;5.09;100.00;101507.63;5117541;27;19915;-67
2022/04/04 03:32:06;;;;;;;;;;;;;;;5.12;100.00;101501.47;5135500;27;20006;-67
2022/04/04 03:34:31;;;;;;;;;;;;;;;5.11;100.00;101499.72;5114984;28;20408;-67
2022/04/04 03:36:56;;;;;;;;;;;;;;;5.09;100.00;101489.19;5115036;28;20018;-68
2022/04/04 03:39:23;;;;;;;;;;;;;;;5.08;100.00;101479.56;5096443;28;19927;-67
2022/04/04 03:41:48;;;;;;;;;;;;;;;5.08;100.00;101483.97;5115052;28;20059;-66
2022/04/04 03:44:13;;;;;;;;;;;;;;;5.04;100.00;101477.00;5096686;28;19916;-67
2022/04/04 03:46:39;;;;;;;;;;;;;;;5.02;100.00;101465.59;5115070;28;19923;-67
2022/04/04 03:49:05;;;;;;;;;;;;;;;5.08;100.00;101453.25;5114714;28;19922;-66
2022/04/04 03:51:30;;;;;;;;;;;;;;;5.05;100.00;101469.06;5114319;28;19916;-67
2022/04/04 03:53:55;;;;;;;;;;;;;;;5.07;100.00;101458.53;5114869;28;20294;-66
2022/04/04 03:56:20;;;;;;;;;;;;;;;5.08;100.00;101457.63;5096444;28;20146;-67
2022/04/04 03:58:45;;;;;;;;;;;;;;;4.98;100.00;101442.84;5114987;28;19915;-67
2022/04/04 04:01:11;;;;;;;;;;;;;;;5.08;100.00;101429.56;5114537;28;19920;-68
2022/04/04 04:03:36;;;;;;;;;;;;;;;5.12;100.00;101428.63;5096422;28;19915;-67
2022/04/04 04:06:11;;;;;;;;;;;;;;;5.15;100.00;101433.88;5096632;28;19977;-68
2022/04/04 04:08:37;;;;;;;;;;;;;;;5.19;100.00;101411.88;5096879;28;19969;-67
2022/04/04 04:11:02;;;;;;;;;;;;;;;5.19;100.00;101408.34;5115009;28;19916;-67
2022/04/04 04:13:27;;;;;;;;;;;;;;;5.23;100.00;101405.66;5096259;28;20014;-69
2022/04/04 04:15:52;;;;;;;;;;;;;;;5.19;100.00;101396.06;5096228;28;19919;-67
2022/04/04 04:18:17;;;;;;;;;;;;;;;5.24;100.00;101402.16;5096297;28;19998;-68
2022/04/04 04:20:43;;;;;;;;;;;;;;;5.27;100.00;101399.50;5095900;28;19947;-68
2022/04/04 04:23:08;;;;;;;;;;;;;;;5.29;100.00;101391.56;5114505;28;19955;-68
2022/04/04 04:25:35;;;;;;;;;;;;;;;5.25;100.00;101393.34;5114237;28;20403;-68
2022/04/04 04:28:02;;;;;;;;;;;;;;;5.31;100.00;101389.78;5096238;28;19926;-68
2022/04/04 04:30:30;;;;;;;;;;;;;;;5.30;100.00;101365.22;5114149;28;19915;-68
2022/04/04 04:32:56;;;;;;;;;;;;;;;5.35;100.00;101368.66;5102999;28;19923;-68
2022/04/04 04:35:21;;;;;;;;;;;;;;;5.34;100.00;101371.31;5115956;28;19937;-67
2022/04/04 04:37:47;;;;;;;;;;;;;;;5.41;100.00;101363.31;5116535;28;19915;-67
2022/04/04 04:40:13;;;;;;;;;;;;;;;5.41;100.00;101346.63;5116470;28;19919;-68
2022/04/04 04:42:38;;;;;;;;;;;;;;;5.35;100.00;101347.59;5134896;28;19916;-68
2022/04/04 04:45:05;;;;;;;;;;;;;;;5.45;100.00;101328.13;5134685;28;19915;-68
2022/04/04 04:47:30;;;;;;;;;;;;;;;5.40;100.00;101335.25;5134701;28;19923;-69
2022/04/04 04:49:55;;;;;;;;;;;;;;;5.48;100.00;101329.84;5134695;28;19922;-68
2022/04/04 04:52:21;;;;;;;;;;;;;;;5.56;100.00;101331.47;5134538;28;20378;-68
2022/04/04 04:54:46;;;;;;;;;;;;;;;5.62;100.00;101309.44;5134465;28;20324;-68
2022/04/04 04:57:12;;;;;;;;;;;;;;;5.58;100.00;101310.38;5134347;28;20278;-68
2022/04/04 04:59:37;;;;;;;;;;;;;;;5.61;100.00;101295.38;5115905;28;20002;-69
2022/04/04 05:02:02;;;;;;;;;;;;;;;5.62;100.00;101305.06;5136379;27;19915;-68
2022/04/04 05:04:28;;;;;;;;;;;;;;;5.61;100.00;101290.13;5103048;27;20457;-70
2022/04/04 05:06:54;;;;;;;;;;;;;;;5.58;100.00;101277.00;5121846;27;20298;-69
2022/04/04 05:09:19;;;;;;;;;;;;;;;5.61;100.00;101279.56;5139174;27;19916;-68
2022/04/04 05:11:44;;;;;;;;;;;;;;;5.63;100.00;101284.81;5143121;27;19945;-68
2022/04/04 05:14:16;;;;;;;;;;;;;;;5.61;100.00;101269.03;5137046;27;19923;-68
2022/04/04 05:16:45;;;;;;;;;;;;;;;5.58;100.00;101277.00;5136053;27;19915;-69
2022/04/04 05:19:12;;;;;;;;;;;;;;;5.65;100.00;101249.69;5137219;27;19919;-68
2022/04/04 05:21:37;;;;;;;;;;;;;;;5.59;100.00;101262.94;5137302;27;19925;-69
2022/04/04 05:24:03;;;;;;;;;;;;;;;5.61;100.00;101247.13;5137677;27;19915;-68
2022/04/04 05:26:29;;;;;;;;;;;;;;;5.61;100.00;101249.75;5121502;27;20011;-69
2022/04/04 05:28:55;;;;;;;;;;;;;;;5.66;100.00;101226.81;5119607;27;19922;-68
2022/04/04 05:31:20;;;;;;;;;;;;;;;5.64;100.00;101236.53;5137642;27;19920;-68
2022/04/04 05:33:46;;;;;;;;;;;;;;;5.68;100.00;101228.53;5123267;27;20290;-67
2022/04/04 05:36:11;;;;;;;;;;;;;;;5.66;100.00;101226.81;5117061;28;19970;-68
2022/04/04 05:38:36;;;;;;;;;;;;;;;5.70;100.00;101224.13;5118445;28;19941;-70
2022/04/04 05:41:01;;;;;;;;;;;;;;;5.65;100.00;101220.69;5117771;28;19915;-68
2022/04/04 05:43:27;;;;;;;;;;;;;;;5.69;100.00;101225.00;5104188;28;20381;-67
2022/04/04 05:45:53;;;;;;;;;;;;;;;5.67;100.00;101205.69;5099067;27;19920;-68
2022/04/04 05:48:18;;;;;;;;;;;;;;;5.65;100.00;101204.00;5108691;27;20017;-68
2022/04/04 05:50:43;;;;;;;;;;;;;;;5.68;100.00;101203.94;5137732;27;19958;-67
2022/04/04 05:53:09;;;;;;;;;;;;;;;5.67;100.00;101196.94;5138231;27;19923;-68
2022/04/04 05:55:34;;;;;;;;;;;;;;;5.61;100.00;101203.16;5138194;27;19915;-68
2022/04/04 05:57:59;;;;;;;;;;;;;;;5.63;100.00;101201.38;5138100;27;19915;-68
2022/04/04 06:00:25;;;;;;;;;;;;;;;5.57;100.00;101192.72;5127690;27;20401;-68
2022/04/04 06:02:50;;;;;;;;;;;;;;;5.50;100.00;101193.72;5114820;28;20426;-68
2022/04/04 06:05:15;;;;;;;;;;;;;;;5.53;100.00;101201.56;5124100;27;19931;-68
2022/04/04 06:07:41;;;;;;;;;;;;;;;5.49;100.00;101203.38;5126217;27;20287;-67
2022/04/04 06:10:07;;;;;;;;;;;;;;;5.46;100.00;101215.72;5115685;28;19920;-69
2022/04/04 06:12:36;;;;;;;;;;;;;;;5.38;100.00;101205.31;5119444;27;19954;-69
2022/04/04 06:15:01;;;;;;;;;;;;;;;5.31;100.00;101203.66;5109250;27;19920;-71
2022/04/04 06:17:27;;;;;;;;;;;;;;;5.23;100.00;101195.00;5105884;27;19932;-71
2022/04/04 06:19:52;;;;;;;;;;;;;;;5.07;100.00;101213.69;5121193;28;19924;-70
2022/04/04 06:22:17;;;;;;;;;;;;;;;5.05;100.00;101194.41;5107900;28;19924;-70
2022/04/04 06:24:43;;;;;;;;;;;;;;;4.98;100.00;101188.38;5116283;27;19926;-72
2022/04/04 06:27:09;;;;;;;;;;;;;;;4.90;100.00;101199.91;5113315;27;19927;-68
2022/04/04 06:29:34;;;;;;;;;;;;;;;4.90;100.00;101195.50;5136623;27;19919;-68
2022/04/04 06:32:01;;;;;;;;;;;;;;;4.98;100.00;101191.00;5133361;27;20469;-69
2022/04/04 06:34:27;;;;;;;;;;;;;;;4.93;100.00;101200.75;5136260;27;19915;-68
2022/04/04 06:36:52;;;;;;;;;;;;;;;4.95;100.00;101220.00;5117849;27;20286;-68
2022/04/04 06:39:18;;;;;;;;;;;;;;;5.02;100.00;101202.38;5117748;27;19930;-68
2022/04/04 06:41:45;;;;;;;;;;;;;;;4.98;100.00;101192.78;5136052;27;19916;-68
2022/04/04 06:44:11;;;;;;;;;;;;;;;5.01;100.00;101198.84;5117925;27;19915;-68
2022/04/04 06:46:36;;;;;;;;;;;;;;;4.95;100.00;101198.94;5136453;27;19915;-68
2022/04/04 06:49:03;;;;;;;;;;;;;;;4.95;100.00;101198.94;5117860;27;20003;-68
2022/04/04 06:51:28;;;;;;;;;;;;;;;4.95;100.00;101192.84;5136379;27;19965;-69
2022/04/04 06:53:53;;;;;;;;;;;;;;;4.92;100.00;101190.25;5118059;27;19922;-69
2022/04/04 06:56:18;;;;;;;;;;;;;;;4.95;100.00;101184.94;5136258;27;19919;-69
2022/04/04 06:58:43;;;;;;;;;;;;;;;5.03;100.00;101190.97;5117813;27;20430;-69
2022/04/04 07:01:09;;;;;;;;;;;;;;;5.03;100.00;101185.69;5136134;27;20006;-69
2022/04/04 07:03:34;;;;;;;;;;;;;;;5.00;100.00;101177.81;5117725;27;20289;-68
2022/04/04 07:05:59;;;;;;;;;;;;;;;5.11;100.00;101216.28;5135889;27;19924;-69
2022/04/04 07:08:24;;;;;;;;;;;;;;;5.09;100.00;101180.34;5135573;27;20370;-69
2022/04/04 07:10:51;;;;;;;;;;;;;;;5.10;100.00;101177.69;5117553;27;20006;-68
2022/04/04 07:13:17;;;;;;;;;;;;;;;5.06;100.00;101167.22;5135884;27;19920;-69
2022/04/04 07:15:43;;;;;;;;;;;;;;;5.02;100.00;101158.50;5135659;27;19938;-68
2022/04/04 07:18:08;;;;;;;;;;;;;;;4.97;100.00;101169.97;5116971;27;19969;-68
2022/04/04 07:20:34;;;;;;;;;;;;;;;4.94;100.00;101170.91;5113059;28;19924;-68
2022/04/04 07:22:59;;;;;;;;;;;;;;;4.89;100.00;101182.38;5115034;28;19919;-69
2022/04/04 07:25:24;;;;;;;;;;;;;;;4.86;100.00;101172.78;5113877;28;19915;-68
2022/04/04 07:27:50;;;;;;;;;;;;;;;4.88;100.00;101176.25;5114877;28;19922;-69
2022/04/04 07:30:17;;;;;;;;;;;;;;;5.02;100.00;101166.41;5115772;28;19984;-68
2022/04/04 07:32:43;;;;;;;;;;;;;;;5.00;100.00;101160.28;5109233;28;19923;-68
2022/04/04 07:35:12;;;;;;;;;;;;;;;4.98;100.00;101166.47;5094989;28;19916;-68
2022/04/04 07:37:37;;;;;;;;;;;;;;;4.98;100.00;101188.38;5093360;28;19916;-68
2022/04/04 07:40:04;;;;;;;;;;;;;;;4.93;100.00;101163.03;5093228;28;19916;-68
2022/04/04 07:42:30;;;;;;;;;;;;;;;4.93;100.00;101169.16;5094750;28;20384;-68
2022/04/04 07:44:55;;;;;;;;;;;;;;;4.84;100.00;101140.34;5093579;28;19927;-68
2022/04/04 07:47:20;;;;;;;;;;;;;;;4.89;100.00;101204.31;5094483;28;19932;-69
2022/04/04 07:49:45;;;;;;;;;;;;;;;4.88;100.00;101154.31;5094399;28;20014;-68
2022/04/04 07:52:11;;;;;;;;;;;;;;;4.86;100.00;101143.81;5093312;28;20014;-68
2022/04/04 07:54:36;;;;;;;;;;;;;;;4.77;100.00;101143.09;5094559;28;19916;-69
2022/04/04 07:57:01;;;;;;;;;;;;;;;4.78;100.00;101137.81;5093973;28;19955;-69
2022/04/04 07:59:26;;;;;;;;;;;;;;;4.71;100.00;101141.44;5094438;28;19916;-69
2022/04/04 08:01:52;;;;;;;;;;;;;;;4.79;100.00;101134.25;5093397;28;19923;-68
2022/04/04 08:04:17;;;;;;;;;;;;;;;4.79;100.00;101133.41;5094281;28;19916;-68
2022/04/04 08:06:43;;;;;;;;;;;;;;;4.81;100.00;101158.81;5094487;28;19967;-68
2022/04/04 08:09:08;;;;;;;;;;;;;;;4.74;100.00;101117.69;5093142;28;20003;-69
2022/04/04 08:11:34;;;;;;;;;;;;;;;4.78;100.00;101116.75;5093679;28;19955;-68
2022/04/04 08:13:59;;;;;;;;;;;;;;;4.82;100.00;101118.47;5094822;28;19920;-68
2022/04/04 08:16:26;;;;;;;;;;;;;;;4.82;100.00;101113.19;5094734;28;19920;-68
2022/04/04 08:18:52;;;;;;;;;;;;;;;4.86;100.00;101104.34;5094575;28;19952;-68
2022/04/04 08:21:17;;;;;;;;;;;;;;;4.84;100.00;101114.03;5110134;28;19931;-68
2022/04/04 08:23:42;;;;;;;;;;;;;;;4.76;100.00;101092.22;5119260;28;19941;-68
2022/04/04 08:26:08;;;;;;;;;;;;;;;4.86;100.00;101109.63;5129539;28;19966;-70
2022/04/04 08:28:33;;;;;;;;;;;;;;;4.85;100.00;101099.13;5105048;28;20420;-72
2022/04/04 08:30:58;;;;;;;;;;;;;;;4.85;100.00;101099.13;5103335;28;20456;-67
2022/04/04 08:33:24;;;;;;;;;;;;;;;4.85;100.00;101101.75;5125633;28;19916;-67
2022/04/04 08:35:52;;;;;;;;;;;;;;;4.88;100.00;101101.69;5116426;28;20016;-67
2022/04/04 08:38:18;;;;;;;;;;;;;;;4.92;100.00;101087.63;5100748;27;19916;-66
2022/04/04 08:40:44;;;;;;;;;;;;;;;4.93;100.00;101106.00;5136171;27;19922;-66
2022/04/04 08:43:10;;;;;;;;;;;;;;;5.00;100.00;101094.47;5109473;28;19916;-66
2022/04/04 08:45:38;;;;;;;;;;;;;;;5.05;100.00;101090.00;5137063;27;19920;-67
2022/04/04 08:48:03;;;;;;;;;;;;;;;5.11;100.00;101108.34;5133232;27;20010;-67
2022/04/04 08:50:28;;;;;;;;;;;;;;;5.02;100.00;101087.44;5103267;27;20326;-67
2022/04/04 08:52:54;;;;;;;;;;;;;;;5.11;100.00;101089.91;5130334;27;19984;-67
2022/04/04 08:55:19;;;;;;;;;;;;;;;5.11;100.00;101092.53;5129484;27;20004;-67
2022/04/04 08:57:44;;;;;;;;;;;;;;;5.08;100.00;101100.50;5118121;28;19982;-67
2022/04/04 09:00:10;;;;;;;;;;;;;;;5.12;100.00;101103.94;5125832;27;20007;-67
2022/04/04 09:02:36;;;;;;;;;;;;;;;5.16;100.00;101093.34;5099461;28;19916;-67
2022/04/04 09:05:02;;;;;;;;;;;;;;;5.17;100.00;101097.69;5131849;27;20006;-67
2022/04/04 09:07:28;;;;;;;;;;;;;;;5.27;100.00;101106.31;5138493;27;20304;-66
2022/04/04 09:09:53;;;;;;;;;;;;;;;5.28;100.00;101106.28;5115863;28;19926;-66
2022/04/04 09:12:22;;;;;;;;;;;;;;;5.26;100.00;101104.59;5133485;27;20019;-66
2022/04/04 09:14:48;;;;;;;;;;;;;;;5.24;100.00;101116.91;5126438;27;19920;-66
2022/04/04 09:17:15;;;;;;;;;;;;;;;5.32;100.00;101105.34;5138301;27;19915;-67
2022/04/04 09:19:40;;;;;;;;;;;;;;;5.34;100.00;101124.59;5117542;27;20002;-66
2022/04/04 09:22:06;;;;;;;;;;;;;;;5.41;100.00;101128.88;5117520;28;20413;-66
2022/04/04 09:24:47;;;;;;;;;;;;;;;5.49;100.00;101111.19;5115005;27;19923;-67
2022/04/04 09:27:39;;;;;;;;;;;;;;;5.55;100.00;101112.81;5129065;27;19919;-67
2022/04/04 09:30:05;;;;;;;;;;;;;;;5.53;100.00;101131.28;5115229;27;19920;-66
2022/04/04 09:32:37;;;;;;;;;;;;;;;5.56;100.00;101114.59;5117177;28;20382;-68
2022/04/04 09:35:08;;;;;;;;;;;;;;;5.59;100.00;101125.94;5126158;27;20374;-67
2022/04/04 09:37:34;;;;;;;;;;;;;;;5.61;100.00;101124.13;5115752;27;19915;-67
2022/04/04 09:40:04;;;;;;;;;;;;;;;5.62;100.00;101120.63;5133138;27;20042;-67
2022/04/04 09:42:32;;;;;;;;;;;;;;;5.62;100.00;101135.56;5107275;27;19919;-67
2022/04/04 09:45:02;;;;;;;;;;;;;;;5.62;100.00;101131.16;5122034;27;19922;-67
2022/04/04 09:47:50;;;;;;;;;;;;;;;5.60;100.00;101116.25;5120343;27;19989;-67
2022/04/04 09:50:35;;;;;;;;;;;;;;;5.54;100.00;101134.81;5124692;27;19916;-67
2022/04/04 09:53:02;;;;;;;;;;;;;;;5.60;100.00;101138.22;5136079;27;19958;-67
2022/04/04 09:55:31;;;;;;;;;;;;;;;5.54;100.00;101122.53;5137838;27;19926;-66
2022/04/04 09:58:01;;;;;;;;;;;;;;;5.63;100.00;101135.53;5116824;27;19924;-67
2022/04/04 10:00:26;;;;;;;;;;;;;;;5.67;100.00;101144.25;5131100;27;20293;-67
2022/04/04 10:02:54;;;;;;;;;;;;;;;5.63;100.00;101148.69;5118409;27;19916;-67
2022/04/04 10:05:19;;;;;;;;;;;;;;;5.65;100.00;101152.19;5105355;28;19924;-67
2022/04/04 10:07:45;;;;;;;;;;;;;;;5.65;100.00;101156.56;5116028;28;19939;-66
2022/04/04 10:10:11;;;;;;;;;;;;;;;5.75;100.00;101152.88;5125869;27;19934;-66
2022/04/04 10:12:37;;;;;;;;;;;;;;;5.75;100.00;101158.16;5136710;27;19915;-67
2022/04/04 10:15:03;;;;;;;;;;;;;;;5.81;100.00;101169.47;5109313;27;19920;-67
2022/04/04 10:17:29;;;;;;;;;;;;;;;5.81;100.00;101152.78;5136403;27;20266;-67
2022/04/04 10:19:55;;;;;;;;;;;;;;;5.80;100.00;101151.88;5136727;27;19927;-67
2022/04/04 10:22:20;;;;;;;;;;;;;;;5.85;100.00;101151.84;5115382;27;19915;-67
2022/04/04 10:24:45;;;;;;;;;;;;;;;5.85;100.00;101154.47;5117223;27;20428;-66
2022/04/04 10:27:13;;;;;;;;;;;;;;;5.96;100.00;101163.03;5136624;27;20010;-67
2022/04/04 10:29:40;;;;;;;;;;;;;;;5.91;100.00;101149.97;5124251;27;19915;-67
2022/04/04 10:32:11;;;;;;;;;;;;;;;5.89;100.00;101162.28;5100660;27;19969;-67
2022/04/04 10:34:40;;;;;;;;;;;;;;;5.92;100.00;101157.00;5133541;27;19916;-67
2022/04/04 10:37:09;;;;;;;;;;;;;;;5.98;100.00;101156.88;5116199;27;19920;-67
2022/04/04 10:39:41;;;;;;;;;;;;;;;5.98;100.00;101164.78;5109446;28;19916;-67
2022/04/04 10:42:23;;;;;;;;;;;;;;;5.99;100.00;101163.88;5108623;27;19931;-67
2022/04/04 10:44:52;;;;;;;;;;;;;;;6.00;100.00;101164.75;5133060;27;19916;-67
2022/04/04 10:47:20;;;;;;;;;;;;;;;6.04;100.00;101171.69;5116166;27;20005;-67
2022/04/04 10:49:46;;;;;;;;;;;;;;;6.05;100.00;101174.28;5101945;28;20047;-67
2022/04/04 10:52:11;;;;;;;;;;;;;;;6.02;100.00;101155.91;5113735;27;20007;-67
2022/04/04 10:54:38;;;;;;;;;;;;;;;6.00;100.00;101170.88;5135784;27;19923;-67
2022/04/04 10:57:14;;;;;;;;;;;;;;;6.07;100.00;101150.53;5139977;27;19916;-67
2022/04/04 10:59:39;;;;;;;;;;;;;;;6.05;100.00;101181.34;5125716;27;20010;-67
2022/04/04 11:02:06;;;;;;;;;;;;;;;6.16;100.00;101151.22;5141763;27;20441;-67
2022/04/04 11:10:06;;;;;;;;;;;;;;;6.28;100.00;101189.69;5131512;27;19922;-67
2022/04/04 11:12:50;;;;;;;;;;;;;;;6.30;100.00;101190.53;5109996;28;19915;-67
2022/04/04 11:15:16;;;;;;;;;;;;;;;6.39;100.00;101192.09;5130231;27;20366;-68
2022/04/04 11:17:55;;;;;;;;;;;;;;;6.37;100.00;101183.38;5137535;27;19915;-67
2022/04/04 11:20:31;;;;;;;;;;;;;;;6.36;100.00;101186.88;5115656;28;19972;-68
2022/04/04 11:22:57;;;;;;;;;;;;;;;6.42;100.00;101210.50;5132641;27;20266;-69
2022/04/04 11:25:26;;;;;;;;;;;;;;;6.42;100.00;101199.94;5128353;27;20013;-67
2022/04/04 11:31:17;;;;;;;;;;;;;;;6.56;100.00;101201.41;5135277;27;19926;-67
2022/04/04 11:34:00;;;;;;;;;;;;;;;6.65;100.00;101208.28;5116955;27;19919;-69
2022/04/04 11:36:27;;;;;;;;;;;;;;;6.73;100.00;101216.91;5135265;27;19919;-67
2022/04/04 11:38:57;;;;;;;;;;;;;;;6.65;100.00;101209.13;5134818;27;19923;-67
2022/04/04 11:41:24;;;;;;;;;;;;;;;6.72;100.00;101202.84;5134760;27;19916;-67
2022/04/04 11:43:51;;;;;;;;;;;;;;;6.72;100.00;101200.19;5116434;28;19968;-68
2022/04/04 11:46:19;;;;;;;;;;;;;;;6.89;100.00;101218.28;5134602;27;19966;-67
2022/04/04 11:48:49;;;;;;;;;;;;;;;6.91;100.00;101212.09;5135167;27;20359;-68
2022/04/04 11:51:14;;;;;;;;;;;;;;;6.91;100.00;101209.47;5134677;28;19920;-67
2022/04/04 11:53:39;;;;;;;;;;;;;;;6.89;100.00;101216.53;5116235;28;20010;-68
2022/04/04 11:56:10;;;;;;;;;;;;;;;6.92;100.00;101118.78;5134419;28;19958;-68
2022/04/04 11:58:46;;;;;;;;;;;;;;;6.99;100.00;101096.63;5134470;28;19923;-68
2022/04/04 12:03:58;;;;;;;;;;;;;;;7.01;100.00;101118.53;5120264;28;19984;-68
2022/04/04 12:06:24;;;;;;;;;;;;;;;7.10;100.00;101154.44;5116176;28;19926;-67
2022/04/04 12:08:49;;;;;;;;;;;;;;;7.12;100.00;101163.22;5134259;28;19915;-67
2022/04/04 12:11:25;;;;;;;;;;;;;;;7.14;100.00;101177.22;5098878;27;19923;-68
2022/04/04 12:13:53;;;;;;;;;;;;;;;7.11;100.00;101156.16;5138434;27;19922;-68
2022/04/04 12:16:19;;;;;;;;;;;;;;;7.15;100.00;101178.97;5138774;27;19964;-68
2022/04/04 12:18:51;;;;;;;;;;;;;;;7.13;100.00;101172.84;5120136;27;20344;-67
2022/04/04 12:21:18;;;;;;;;;;;;;;;7.12;100.00;101173.78;5138261;27;19920;-68
2022/04/04 12:26:28;;;;;;;;;;;;;;;7.21;100.00;101173.56;5138619;27;19922;-67
2022/04/04 12:28:53;;;;;;;;;;;;;;;7.30;100.00;101163.63;5138642;27;19938;-69
2022/04/04 12:31:26;;;;;;;;;;;;;;;7.25;100.00;101169.91;5138988;27;19916;-68
2022/04/04 12:33:53;;;;;;;;;;;;;;;7.30;100.00;101154.81;5104851;28;19966;-67
2022/04/04 12:36:30;;;;;;;;;;;;;;;7.20;100.00;101140.13;5117804;28;20343;-68
2022/04/04 12:38:59;;;;;;;;;;;;;;;7.33;100.00;101133.63;5117954;28;19920;-67
2022/04/04 12:41:25;;;;;;;;;;;;;;;7.25;100.00;101140.84;5117665;28;20005;-67
2022/04/04 12:44:01;;;;;;;;;;;;;;;7.24;100.00;101137.38;5117733;28;20387;-67
2022/04/04 12:46:27;;;;;;;;;;;;;;;7.18;100.00;101141.94;5117613;28;19920;-67
2022/04/04 12:48:53;;;;;;;;;;;;;;;7.26;100.00;101147.91;5099123;28;20298;-68